sensor_id;sensor_type;location;lat;lon;timestamp;temperature;humidity
11122;DHT22;5615;49.304;10.576;2023-07-13T00:02:19;19.60;99.90
11122;DHT22;5615;49.304;10.576;2023-07-13T00:04:46;19.50;99.90
11122;DHT22;5615;49.304;10.576;2023-07-13T00:07:13;19.50;99.90
11122;DHT22;5615;49.304;10.576;2023-07-13T00:09:40;19.50;99.90
11122;DHT22;5615;49.304;10.576;2023-07-13T00:12:23;19.40;99.90
11122;DHT22;5615;49.304;10.576;2023-07-13T00:14:49;19.40;99.90
11122;DHT22;5615;49.304;10.576;2023-07-13T00:17:16;19.30;99.90
11122;DHT22;5615;49.304;10.576;2023-07-13T00:19:44;19.30;99.90
11122;DHT22;5615;49.304;10.576;2023-07-13T00:22:11;19.30;99.90
11122;DHT22;5615;49.304;10.576;2023-07-13T00:24:38;19.20;99.90
11122;DHT22;5615;49.304;10.576;2023-07-13T00:27:07;19.20;99.90
11122;DHT22;5615;49.304;10.576;2023-07-13T00:29:34;19.30;99.90
11122;DHT22;5615;49.304;10.576;2023-07-13T00:32:01;19.10;99.90
11122;DHT22;5615;49.304;10.576;2023-07-13T00:34:28;19.00;99.90
11122;DHT22;5615;49.304;10.576;2023-07-13T00:36:56;18.90;99.90
11122;DHT22;5615;49.304;10.576;2023-07-13T00:39:22;18.80;99.90
11122;DHT22;5615;49.304;10.576;2023-07-13T00:41:50;18.90;99.90
11122;DHT22;5615;49.304;10.576;2023-07-13T00:44:18;18.80;99.90
11122;DHT22;5615;49.304;10.576;2023-07-13T00:46:45;18.90;99.90
11122;DHT22;5615;49.304;10.576;2023-07-13T00:49:15;18.90;99.90
11122;DHT22;5615;49.304;10.576;2023-07-13T00:51:46;18.80;99.90
11122;DHT22;5615;49.304;10.576;2023-07-13T00:54:19;18.70;99.90
11122;DHT22;5615;49.304;10.576;2023-07-13T00:56:50;18.70;99.90
11122;DHT22;5615;49.304;10.576;2023-07-13T00:59:18;18.70;99.90
11122;DHT22;5615;49.304;10.576;2023-07-13T01:01:46;18.60;99.90
11122;DHT22;5615;49.304;10.576;2023-07-13T01:04:14;18.50;99.90
11122;DHT22;5615;49.304;10.576;2023-07-13T01:06:41;18.40;99.90
11122;DHT22;5615;49.304;10.576;2023-07-13T01:09:09;18.50;99.90
11122;DHT22;5615;49.304;10.576;2023-07-13T01:11:38;18.30;99.90
11122;DHT22;5615;49.304;10.576;2023-07-13T01:14:07;18.20;99.90
11122;DHT22;5615;49.304;10.576;2023-07-13T01:16:36;18.30;99.90
11122;DHT22;5615;49.304;10.576;2023-07-13T01:19:06;18.10;99.90
11122;DHT22;5615;49.304;10.576;2023-07-13T01:21:35;18.10;99.90
11122;DHT22;5615;49.304;10.576;2023-07-13T01:24:08;18.10;99.90
11122;DHT22;5615;49.304;10.576;2023-07-13T01:26:35;18.00;99.90
11122;DHT22;5615;49.304;10.576;2023-07-13T01:29:01;17.90;99.90
11122;DHT22;5615;49.304;10.576;2023-07-13T01:31:28;17.90;99.90
11122;DHT22;5615;49.304;10.576;2023-07-13T01:33:55;17.80;99.90
11122;DHT22;5615;49.304;10.576;2023-07-13T01:36:22;17.80;99.90
11122;DHT22;5615;49.304;10.576;2023-07-13T01:38:50;17.80;99.90
11122;DHT22;5615;49.304;10.576;2023-07-13T01:41:17;17.90;99.90
11122;DHT22;5615;49.304;10.576;2023-07-13T01:43:44;17.90;99.90
11122;DHT22;5615;49.304;10.576;2023-07-13T01:46:10;17.90;99.90
11122;DHT22;5615;49.304;10.576;2023-07-13T01:48:37;17.90;99.90
11122;DHT22;5615;49.304;10.576;2023-07-13T01:51:04;17.80;99.90
11122;DHT22;5615;49.304;10.576;2023-07-13T01:53:30;17.80;99.90
11122;DHT22;5615;49.304;10.576;2023-07-13T01:55:58;17.70;99.90
11122;DHT22;5615;49.304;10.576;2023-07-13T01:58:25;17.60;99.90
11122;DHT22;5615;49.304;10.576;2023-07-13T02:00:52;17.50;99.90
11122;DHT22;5615;49.304;10.576;2023-07-13T02:03:18;17.50;99.90
11122;DHT22;5615;49.304;10.576;2023-07-13T02:05:45;17.40;99.90
11122;DHT22;5615;49.304;10.576;2023-07-13T02:08:12;17.50;99.90
11122;DHT22;5615;49.304;10.576;2023-07-13T02:10:38;17.50;99.90
11122;DHT22;5615;49.304;10.576;2023-07-13T02:13:07;17.40;99.90
11122;DHT22;5615;49.304;10.576;2023-07-13T02:15:33;17.40;99.90
11122;DHT22;5615;49.304;10.576;2023-07-13T02:18:00;17.40;99.90
11122;DHT22;5615;49.304;10.576;2023-07-13T02:20:29;17.30;99.90
11122;DHT22;5615;49.304;10.576;2023-07-13T02:22:55;17.20;99.90
11122;DHT22;5615;49.304;10.576;2023-07-13T02:25:22;17.10;99.90
11122;DHT22;5615;49.304;10.576;2023-07-13T02:27:50;17.00;99.90
11122;DHT22;5615;49.304;10.576;2023-07-13T02:30:18;17.00;99.90
11122;DHT22;5615;49.304;10.576;2023-07-13T02:32:45;17.00;99.90
11122;DHT22;5615;49.304;10.576;2023-07-13T02:35:12;16.80;99.90
11122;DHT22;5615;49.304;10.576;2023-07-13T02:37:38;16.80;99.90
11122;DHT22;5615;49.304;10.576;2023-07-13T02:40:07;16.80;99.90
11122;DHT22;5615;49.304;10.576;2023-07-13T02:42:34;16.70;99.90
11122;DHT22;5615;49.304;10.576;2023-07-13T02:45:01;16.70;99.90
11122;DHT22;5615;49.304;10.576;2023-07-13T02:47:29;16.70;99.90
11122;DHT22;5615;49.304;10.576;2023-07-13T02:49:55;16.60;99.90
11122;DHT22;5615;49.304;10.576;2023-07-13T02:52:22;16.60;99.90
11122;DHT22;5615;49.304;10.576;2023-07-13T02:54:49;16.60;99.90
11122;DHT22;5615;49.304;10.576;2023-07-13T02:57:15;16.70;99.90
11122;DHT22;5615;49.304;10.576;2023-07-13T02:59:42;16.60;99.90
11122;DHT22;5615;49.304;10.576;2023-07-13T03:02:09;16.50;99.90
11122;DHT22;5615;49.304;10.576;2023-07-13T03:04:37;16.50;99.90
11122;DHT22;5615;49.304;10.576;2023-07-13T03:07:05;16.50;99.90
11122;DHT22;5615;49.304;10.576;2023-07-13T03:09:32;16.50;99.90
11122;DHT22;5615;49.304;10.576;2023-07-13T03:11:59;16.50;99.90
11122;DHT22;5615;49.304;10.576;2023-07-13T03:14:26;16.50;99.90
11122;DHT22;5615;49.304;10.576;2023-07-13T03:16:53;16.30;99.90
11122;DHT22;5615;49.304;10.576;2023-07-13T03:19:20;16.20;99.90
11122;DHT22;5615;49.304;10.576;2023-07-13T03:21:48;16.20;99.90
11122;DHT22;5615;49.304;10.576;2023-07-13T03:24:15;16.20;99.90
11122;DHT22;5615;49.304;10.576;2023-07-13T03:26:41;16.30;99.90
11122;DHT22;5615;49.304;10.576;2023-07-13T03:29:08;16.20;99.90
11122;DHT22;5615;49.304;10.576;2023-07-13T03:31:37;16.10;99.90
11122;DHT22;5615;49.304;10.576;2023-07-13T03:34:04;16.00;99.90
11122;DHT22;5615;49.304;10.576;2023-07-13T03:36:31;16.10;99.90
11122;DHT22;5615;49.304;10.576;2023-07-13T03:39:01;16.20;99.90
11122;DHT22;5615;49.304;10.576;2023-07-13T03:41:28;16.20;99.90
11122;DHT22;5615;49.304;10.576;2023-07-13T03:43:56;16.20;99.90
11122;DHT22;5615;49.304;10.576;2023-07-13T03:46:22;16.20;99.90
11122;DHT22;5615;49.304;10.576;2023-07-13T03:48:49;16.00;99.90
11122;DHT22;5615;49.304;10.576;2023-07-13T03:51:16;15.90;99.90
11122;DHT22;5615;49.304;10.576;2023-07-13T03:53:44;15.90;99.90
11122;DHT22;5615;49.304;10.576;2023-07-13T03:56:13;15.90;99.90
11122;DHT22;5615;49.304;10.576;2023-07-13T03:58:42;16.00;99.90
11122;DHT22;5615;49.304;10.576;2023-07-13T04:01:10;16.00;99.90
11122;DHT22;5615;49.304;10.576;2023-07-13T04:03:37;16.00;99.90
11122;DHT22;5615;49.304;10.576;2023-07-13T04:06:12;16.00;99.90
11122;DHT22;5615;49.304;10.576;2023-07-13T04:08:40;16.00;99.90
11122;DHT22;5615;49.304;10.576;2023-07-13T04:11:07;16.00;99.90
11122;DHT22;5615;49.304;10.576;2023-07-13T04:13:35;16.00;99.90
11122;DHT22;5615;49.304;10.576;2023-07-13T04:16:02;16.00;99.90
11122;DHT22;5615;49.304;10.576;2023-07-13T04:18:29;16.00;99.90
11122;DHT22;5615;49.304;10.576;2023-07-13T04:20:55;16.10;99.90
11122;DHT22;5615;49.304;10.576;2023-07-13T04:23:22;16.20;99.90
11122;DHT22;5615;49.304;10.576;2023-07-13T04:25:51;16.20;99.90
11122;DHT22;5615;49.304;10.576;2023-07-13T04:28:19;16.30;99.90
11122;DHT22;5615;49.304;10.576;2023-07-13T04:30:47;16.40;99.90
11122;DHT22;5615;49.304;10.576;2023-07-13T04:33:15;16.40;99.90
11122;DHT22;5615;49.304;10.576;2023-07-13T04:35:42;16.50;99.90
11122;DHT22;5615;49.304;10.576;2023-07-13T04:38:09;16.60;99.90
11122;DHT22;5615;49.304;10.576;2023-07-13T04:40:36;16.60;99.90
11122;DHT22;5615;49.304;10.576;2023-07-13T04:43:03;16.60;99.90
11122;DHT22;5615;49.304;10.576;2023-07-13T04:45:30;16.60;99.90
11122;DHT22;5615;49.304;10.576;2023-07-13T04:47:58;16.70;99.90
11122;DHT22;5615;49.304;10.576;2023-07-13T04:50:25;16.80;99.90
11122;DHT22;5615;49.304;10.576;2023-07-13T04:52:52;16.80;99.90
11122;DHT22;5615;49.304;10.576;2023-07-13T04:55:20;16.90;99.90
11122;DHT22;5615;49.304;10.576;2023-07-13T04:57:47;16.90;99.90
11122;DHT22;5615;49.304;10.576;2023-07-13T05:00:14;17.00;99.90
11122;DHT22;5615;49.304;10.576;2023-07-13T05:02:43;17.10;99.90
11122;DHT22;5615;49.304;10.576;2023-07-13T05:05:12;17.20;99.90
11122;DHT22;5615;49.304;10.576;2023-07-13T05:07:39;17.30;99.90
11122;DHT22;5615;49.304;10.576;2023-07-13T05:10:06;17.50;99.90
11122;DHT22;5615;49.304;10.576;2023-07-13T05:12:33;17.60;99.90
11122;DHT22;5615;49.304;10.576;2023-07-13T05:15:00;17.80;99.90
11122;DHT22;5615;49.304;10.576;2023-07-13T05:17:27;18.00;99.90
11122;DHT22;5615;49.304;10.576;2023-07-13T05:19:54;18.00;99.90
11122;DHT22;5615;49.304;10.576;2023-07-13T05:22:22;18.00;99.90
11122;DHT22;5615;49.304;10.576;2023-07-13T05:24:48;18.10;99.90
11122;DHT22;5615;49.304;10.576;2023-07-13T05:27:15;18.00;99.90
11122;DHT22;5615;49.304;10.576;2023-07-13T05:29:42;18.10;99.90
11122;DHT22;5615;49.304;10.576;2023-07-13T05:32:08;18.10;99.90
11122;DHT22;5615;49.304;10.576;2023-07-13T05:34:35;18.10;99.90
11122;DHT22;5615;49.304;10.576;2023-07-13T05:37:01;18.30;99.90
11122;DHT22;5615;49.304;10.576;2023-07-13T05:39:29;18.20;99.90
11122;DHT22;5615;49.304;10.576;2023-07-13T05:41:56;18.30;99.90
11122;DHT22;5615;49.304;10.576;2023-07-13T05:44:23;18.20;99.90
11122;DHT22;5615;49.304;10.576;2023-07-13T05:46:49;18.30;99.90
11122;DHT22;5615;49.304;10.576;2023-07-13T05:49:16;18.30;99.90
11122;DHT22;5615;49.304;10.576;2023-07-13T05:51:43;18.40;99.90
11122;DHT22;5615;49.304;10.576;2023-07-13T05:54:09;18.50;99.90
11122;DHT22;5615;49.304;10.576;2023-07-13T05:56:37;18.50;99.90
11122;DHT22;5615;49.304;10.576;2023-07-13T05:59:05;18.70;99.90
11122;DHT22;5615;49.304;10.576;2023-07-13T06:01:32;18.90;99.90
11122;DHT22;5615;49.304;10.576;2023-07-13T06:03:58;19.10;99.90
11122;DHT22;5615;49.304;10.576;2023-07-13T06:06:25;19.30;99.90
11122;DHT22;5615;49.304;10.576;2023-07-13T06:08:52;19.40;99.90
11122;DHT22;5615;49.304;10.576;2023-07-13T06:11:20;19.20;99.90
11122;DHT22;5615;49.304;10.576;2023-07-13T06:13:49;19.20;99.90
11122;DHT22;5615;49.304;10.576;2023-07-13T06:16:16;19.20;99.90
11122;DHT22;5615;49.304;10.576;2023-07-13T06:18:43;19.20;99.90
11122;DHT22;5615;49.304;10.576;2023-07-13T06:21:12;19.10;99.90
11122;DHT22;5615;49.304;10.576;2023-07-13T06:23:39;19.10;99.90
11122;DHT22;5615;49.304;10.576;2023-07-13T06:26:06;19.10;99.90
11122;DHT22;5615;49.304;10.576;2023-07-13T06:28:34;19.20;99.90
11122;DHT22;5615;49.304;10.576;2023-07-13T06:31:04;19.30;99.90
11122;DHT22;5615;49.304;10.576;2023-07-13T06:33:31;19.30;99.90
11122;DHT22;5615;49.304;10.576;2023-07-13T06:35:57;19.30;99.90
11122;DHT22;5615;49.304;10.576;2023-07-13T06:38:24;19.20;99.90
11122;DHT22;5615;49.304;10.576;2023-07-13T06:40:50;19.20;99.90
11122;DHT22;5615;49.304;10.576;2023-07-13T06:43:17;19.40;99.90
11122;DHT22;5615;49.304;10.576;2023-07-13T06:45:46;19.40;99.90
11122;DHT22;5615;49.304;10.576;2023-07-13T06:48:17;19.40;99.90
11122;DHT22;5615;49.304;10.576;2023-07-13T06:50:44;19.30;99.90
11122;DHT22;5615;49.304;10.576;2023-07-13T06:53:12;19.40;99.90
11122;DHT22;5615;49.304;10.576;2023-07-13T06:55:39;19.60;99.90
11122;DHT22;5615;49.304;10.576;2023-07-13T06:58:06;19.80;99.90
11122;DHT22;5615;49.304;10.576;2023-07-13T07:00:33;19.60;99.90
11122;DHT22;5615;49.304;10.576;2023-07-13T07:02:59;19.70;99.90
11122;DHT22;5615;49.304;10.576;2023-07-13T07:05:27;19.70;99.90
11122;DHT22;5615;49.304;10.576;2023-07-13T07:07:55;19.60;99.90
11122;DHT22;5615;49.304;10.576;2023-07-13T07:10:22;19.70;99.90
11122;DHT22;5615;49.304;10.576;2023-07-13T07:12:48;19.80;99.90
11122;DHT22;5615;49.304;10.576;2023-07-13T07:15:16;19.70;99.90
11122;DHT22;5615;49.304;10.576;2023-07-13T07:17:43;19.70;99.90
11122;DHT22;5615;49.304;10.576;2023-07-13T07:20:11;19.60;99.90
11122;DHT22;5615;49.304;10.576;2023-07-13T07:22:39;19.60;99.90
11122;DHT22;5615;49.304;10.576;2023-07-13T07:25:06;19.70;99.90
11122;DHT22;5615;49.304;10.576;2023-07-13T07:27:33;19.70;99.90
11122;DHT22;5615;49.304;10.576;2023-07-13T07:29:59;19.90;99.90
11122;DHT22;5615;49.304;10.576;2023-07-13T07:32:28;19.70;99.90
11122;DHT22;5615;49.304;10.576;2023-07-13T07:34:55;19.90;99.90
11122;DHT22;5615;49.304;10.576;2023-07-13T07:37:21;19.90;99.90
11122;DHT22;5615;49.304;10.576;2023-07-13T07:39:50;20.20;99.90
11122;DHT22;5615;49.304;10.576;2023-07-13T07:42:16;20.30;99.90
11122;DHT22;5615;49.304;10.576;2023-07-13T07:44:43;20.30;99.90
11122;DHT22;5615;49.304;10.576;2023-07-13T07:47:09;20.20;99.90
11122;DHT22;5615;49.304;10.576;2023-07-13T07:49:36;20.20;99.90
11122;DHT22;5615;49.304;10.576;2023-07-13T07:52:04;20.20;99.90
11122;DHT22;5615;49.304;10.576;2023-07-13T07:54:31;20.20;99.90
11122;DHT22;5615;49.304;10.576;2023-07-13T07:56:59;20.20;99.90
11122;DHT22;5615;49.304;10.576;2023-07-13T07:59:25;20.50;99.90
11122;DHT22;5615;49.304;10.576;2023-07-13T08:01:52;20.60;99.50
11122;DHT22;5615;49.304;10.576;2023-07-13T08:04:18;20.60;98.90
11122;DHT22;5615;49.304;10.576;2023-07-13T08:06:45;20.80;99.10
11122;DHT22;5615;49.304;10.576;2023-07-13T08:09:12;20.90;97.00
11122;DHT22;5615;49.304;10.576;2023-07-13T08:11:38;21.00;94.80
11122;DHT22;5615;49.304;10.576;2023-07-13T08:14:06;21.20;94.60
11122;DHT22;5615;49.304;10.576;2023-07-13T08:16:34;21.20;94.70
11122;DHT22;5615;49.304;10.576;2023-07-13T08:19:01;21.60;94.70
11122;DHT22;5615;49.304;10.576;2023-07-13T08:21:28;21.60;94.10
11122;DHT22;5615;49.304;10.576;2023-07-13T08:23:55;21.60;95.10
11122;DHT22;5615;49.304;10.576;2023-07-13T08:26:22;21.60;93.50
11122;DHT22;5615;49.304;10.576;2023-07-13T08:28:49;21.90;92.10
11122;DHT22;5615;49.304;10.576;2023-07-13T08:31:17;22.20;91.10
11122;DHT22;5615;49.304;10.576;2023-07-13T08:33:43;22.00;90.20
11122;DHT22;5615;49.304;10.576;2023-07-13T08:36:10;22.00;89.70
11122;DHT22;5615;49.304;10.576;2023-07-13T08:38:37;22.30;87.40
11122;DHT22;5615;49.304;10.576;2023-07-13T08:41:11;22.50;86.50
11122;DHT22;5615;49.304;10.576;2023-07-13T08:43:38;22.30;84.70
11122;DHT22;5615;49.304;10.576;2023-07-13T08:46:11;22.40;84.80
11122;DHT22;5615;49.304;10.576;2023-07-13T08:48:44;22.40;84.20
11122;DHT22;5615;49.304;10.576;2023-07-13T08:51:24;22.50;83.50
11122;DHT22;5615;49.304;10.576;2023-07-13T08:53:54;22.40;80.30
11122;DHT22;5615;49.304;10.576;2023-07-13T08:56:24;22.60;79.70
11122;DHT22;5615;49.304;10.576;2023-07-13T08:58:55;22.80;80.30
11122;DHT22;5615;49.304;10.576;2023-07-13T09:01:28;22.70;81.10
11122;DHT22;5615;49.304;10.576;2023-07-13T09:04:04;22.70;77.10
11122;DHT22;5615;49.304;10.576;2023-07-13T09:06:37;22.70;74.60
11122;DHT22;5615;49.304;10.576;2023-07-13T09:09:10;22.70;76.20
11122;DHT22;5615;49.304;10.576;2023-07-13T09:11:46;23.10;74.30
11122;DHT22;5615;49.304;10.576;2023-07-13T09:14:31;22.80;75.40
11122;DHT22;5615;49.304;10.576;2023-07-13T09:17:00;22.80;72.50
11122;DHT22;5615;49.304;10.576;2023-07-13T09:19:32;23.00;72.90
11122;DHT22;5615;49.304;10.576;2023-07-13T09:22:02;22.60;72.20
11122;DHT22;5615;49.304;10.576;2023-07-13T09:24:37;23.10;71.00
11122;DHT22;5615;49.304;10.576;2023-07-13T09:27:11;23.40;70.10
11122;DHT22;5615;49.304;10.576;2023-07-13T09:29:46;23.20;69.70
11122;DHT22;5615;49.304;10.576;2023-07-13T09:32:14;23.70;69.00
11122;DHT22;5615;49.304;10.576;2023-07-13T09:34:51;23.80;67.00
11122;DHT22;5615;49.304;10.576;2023-07-13T09:37:20;24.30;65.80
11122;DHT22;5615;49.304;10.576;2023-07-13T09:39:49;23.70;64.90
11122;DHT22;5615;49.304;10.576;2023-07-13T09:42:18;24.00;65.40
11122;DHT22;5615;49.304;10.576;2023-07-13T09:44:52;24.20;64.30
11122;DHT22;5615;49.304;10.576;2023-07-13T09:47:22;24.60;63.10
11122;DHT22;5615;49.304;10.576;2023-07-13T09:49:56;24.70;62.30
11122;DHT22;5615;49.304;10.576;2023-07-13T09:52:24;25.30;61.80
11122;DHT22;5615;49.304;10.576;2023-07-13T09:54:53;25.80;61.40
11122;DHT22;5615;49.304;10.576;2023-07-13T09:57:27;25.00;58.20
11122;DHT22;5615;49.304;10.576;2023-07-13T09:59:55;25.20;59.20
11122;DHT22;5615;49.304;10.576;2023-07-13T10:02:26;25.60;59.60
11122;DHT22;5615;49.304;10.576;2023-07-13T10:04:59;25.10;57.50
11122;DHT22;5615;49.304;10.576;2023-07-13T10:07:26;24.80;57.40
11122;DHT22;5615;49.304;10.576;2023-07-13T10:09:54;25.80;57.20
11122;DHT22;5615;49.304;10.576;2023-07-13T10:12:21;26.00;56.00
11122;DHT22;5615;49.304;10.576;2023-07-13T10:14:50;25.20;56.40
11122;DHT22;5615;49.304;10.576;2023-07-13T10:17:19;24.60;56.00
11122;DHT22;5615;49.304;10.576;2023-07-13T10:19:52;25.10;56.10
11122;DHT22;5615;49.304;10.576;2023-07-13T10:22:26;25.30;56.10
11122;DHT22;5615;49.304;10.576;2023-07-13T10:24:54;25.40;55.90
11122;DHT22;5615;49.304;10.576;2023-07-13T10:27:28;24.90;55.50
11122;DHT22;5615;49.304;10.576;2023-07-13T10:30:09;25.50;55.50
11122;DHT22;5615;49.304;10.576;2023-07-13T10:32:38;25.10;55.40
11122;DHT22;5615;49.304;10.576;2023-07-13T10:35:09;25.50;54.00
11122;DHT22;5615;49.304;10.576;2023-07-13T10:37:43;25.80;54.60
11122;DHT22;5615;49.304;10.576;2023-07-13T10:40:15;26.80;53.10
11122;DHT22;5615;49.304;10.576;2023-07-13T10:42:45;26.70;53.40
11122;DHT22;5615;49.304;10.576;2023-07-13T10:45:14;26.10;53.10
11122;DHT22;5615;49.304;10.576;2023-07-13T10:47:42;24.90;53.40
11122;DHT22;5615;49.304;10.576;2023-07-13T10:50:15;25.10;53.40
11122;DHT22;5615;49.304;10.576;2023-07-13T10:52:46;24.70;53.30
11122;DHT22;5615;49.304;10.576;2023-07-13T10:55:37;24.30;54.70
11122;DHT22;5615;49.304;10.576;2023-07-13T10:58:13;26.10;54.60
11122;DHT22;5615;49.304;10.576;2023-07-13T11:00:47;26.00;52.40
11122;DHT22;5615;49.304;10.576;2023-07-13T11:03:16;25.70;53.70
11122;DHT22;5615;49.304;10.576;2023-07-13T11:05:43;25.20;53.20
11122;DHT22;5615;49.304;10.576;2023-07-13T11:08:19;24.90;53.10
11122;DHT22;5615;49.304;10.576;2023-07-13T11:10:51;25.10;52.10
11122;DHT22;5615;49.304;10.576;2023-07-13T11:13:37;26.10;51.60
11122;DHT22;5615;49.304;10.576;2023-07-13T11:16:13;26.90;50.10
11122;DHT22;5615;49.304;10.576;2023-07-13T11:18:39;27.10;49.30
11122;DHT22;5615;49.304;10.576;2023-07-13T11:21:13;27.30;49.00
11122;DHT22;5615;49.304;10.576;2023-07-13T11:23:45;26.70;49.70
11122;DHT22;5615;49.304;10.576;2023-07-13T11:26:38;27.60;48.10
11122;DHT22;5615;49.304;10.576;2023-07-13T11:29:09;29.20;47.20
11122;DHT22;5615;49.304;10.576;2023-07-13T11:31:36;27.80;44.40
11122;DHT22;5615;49.304;10.576;2023-07-13T11:34:12;27.00;45.40
11122;DHT22;5615;49.304;10.576;2023-07-13T11:36:43;27.20;46.00
11122;DHT22;5615;49.304;10.576;2023-07-13T11:39:18;26.70;46.00
11122;DHT22;5615;49.304;10.576;2023-07-13T11:41:50;27.20;45.60
11122;DHT22;5615;49.304;10.576;2023-07-13T11:44:19;27.60;45.40
11122;DHT22;5615;49.304;10.576;2023-07-13T11:46:48;26.70;45.90
11122;DHT22;5615;49.304;10.576;2023-07-13T11:49:17;26.60;45.90
11122;DHT22;5615;49.304;10.576;2023-07-13T11:51:44;25.80;45.10
11122;DHT22;5615;49.304;10.576;2023-07-13T11:54:27;26.10;46.60
11122;DHT22;5615;49.304;10.576;2023-07-13T11:56:56;27.30;46.00
11122;DHT22;5615;49.304;10.576;2023-07-13T11:59:26;26.90;46.30
11122;DHT22;5615;49.304;10.576;2023-07-13T12:01:54;28.70;44.80
11122;DHT22;5615;49.304;10.576;2023-07-13T12:04:24;27.70;45.40
11122;DHT22;5615;49.304;10.576;2023-07-13T12:06:56;26.40;46.40
11122;DHT22;5615;49.304;10.576;2023-07-13T12:09:28;27.40;45.90
11122;DHT22;5615;49.304;10.576;2023-07-13T12:11:56;27.00;45.00
11122;DHT22;5615;49.304;10.576;2023-07-13T12:14:23;26.70;45.80
11122;DHT22;5615;49.304;10.576;2023-07-13T12:16:52;27.40;45.70
11122;DHT22;5615;49.304;10.576;2023-07-13T12:19:22;27.30;45.50
11122;DHT22;5615;49.304;10.576;2023-07-13T12:21:50;27.50;46.30
11122;DHT22;5615;49.304;10.576;2023-07-13T12:24:19;27.30;46.20
11122;DHT22;5615;49.304;10.576;2023-07-13T12:26:52;27.10;46.30
11122;DHT22;5615;49.304;10.576;2023-07-13T12:29:19;26.50;46.10
11122;DHT22;5615;49.304;10.576;2023-07-13T12:31:47;26.30;47.00
11122;DHT22;5615;49.304;10.576;2023-07-13T12:34:16;26.30;47.30
11122;DHT22;5615;49.304;10.576;2023-07-13T12:36:47;26.30;46.30
11122;DHT22;5615;49.304;10.576;2023-07-13T12:39:17;26.10;47.30
11122;DHT22;5615;49.304;10.576;2023-07-13T12:41:45;26.40;47.40
11122;DHT22;5615;49.304;10.576;2023-07-13T12:44:16;26.20;46.00
11122;DHT22;5615;49.304;10.576;2023-07-13T12:46:54;25.50;47.70
11122;DHT22;5615;49.304;10.576;2023-07-13T12:49:26;26.10;48.90
11122;DHT22;5615;49.304;10.576;2023-07-13T12:51:58;28.00;46.40
11122;DHT22;5615;49.304;10.576;2023-07-13T12:54:26;28.30;45.50
11122;DHT22;5615;49.304;10.576;2023-07-13T12:56:54;27.30;45.50
11122;DHT22;5615;49.304;10.576;2023-07-13T12:59:29;26.70;46.00
11122;DHT22;5615;49.304;10.576;2023-07-13T13:01:59;27.90;44.40
11122;DHT22;5615;49.304;10.576;2023-07-13T13:04:25;28.90;43.10
11122;DHT22;5615;49.304;10.576;2023-07-13T13:07:02;27.80;42.70
11122;DHT22;5615;49.304;10.576;2023-07-13T13:09:29;27.80;43.40
11122;DHT22;5615;49.304;10.576;2023-07-13T13:11:55;27.10;43.40
11122;DHT22;5615;49.304;10.576;2023-07-13T13:14:22;26.80;42.90
11122;DHT22;5615;49.304;10.576;2023-07-13T13:16:51;27.30;42.20
11122;DHT22;5615;49.304;10.576;2023-07-13T13:19:20;26.70;42.80
11122;DHT22;5615;49.304;10.576;2023-07-13T13:21:48;26.80;41.60
11122;DHT22;5615;49.304;10.576;2023-07-13T13:24:17;26.40;43.30
11122;DHT22;5615;49.304;10.576;2023-07-13T13:26:46;26.50;43.20
11122;DHT22;5615;49.304;10.576;2023-07-13T13:29:15;26.00;43.60
11122;DHT22;5615;49.304;10.576;2023-07-13T13:31:42;27.40;43.80
11122;DHT22;5615;49.304;10.576;2023-07-13T13:34:12;29.40;41.10
11122;DHT22;5615;49.304;10.576;2023-07-13T13:36:40;30.10;39.60
11122;DHT22;5615;49.304;10.576;2023-07-13T13:39:19;28.00;39.70
11122;DHT22;5615;49.304;10.576;2023-07-13T13:41:46;27.90;40.30
11122;DHT22;5615;49.304;10.576;2023-07-13T13:44:15;27.70;40.10
11122;DHT22;5615;49.304;10.576;2023-07-13T13:46:43;29.30;38.80
11122;DHT22;5615;49.304;10.576;2023-07-13T13:49:14;30.20;38.10
11122;DHT22;5615;49.304;10.576;2023-07-13T13:51:41;31.00;37.10
11122;DHT22;5615;49.304;10.576;2023-07-13T13:54:11;31.60;35.80
11122;DHT22;5615;49.304;10.576;2023-07-13T13:56:40;31.50;35.50
11122;DHT22;5615;49.304;10.576;2023-07-13T13:59:07;30.50;35.70
11122;DHT22;5615;49.304;10.576;2023-07-13T14:01:34;31.20;34.90
11122;DHT22;5615;49.304;10.576;2023-07-13T14:04:01;32.40;34.50
11122;DHT22;5615;49.304;10.576;2023-07-13T14:06:29;31.70;33.30
11122;DHT22;5615;49.304;10.576;2023-07-13T14:08:56;31.40;32.80
11122;DHT22;5615;49.304;10.576;2023-07-13T14:11:23;30.80;34.00
11122;DHT22;5615;49.304;10.576;2023-07-13T14:13:52;32.30;32.90
11122;DHT22;5615;49.304;10.576;2023-07-13T14:16:20;31.90;31.70
11122;DHT22;5615;49.304;10.576;2023-07-13T14:18:48;32.00;31.70
11122;DHT22;5615;49.304;10.576;2023-07-13T14:21:17;31.80;31.70
11122;DHT22;5615;49.304;10.576;2023-07-13T14:23:46;31.60;31.50
11122;DHT22;5615;49.304;10.576;2023-07-13T14:26:15;32.10;31.00
11122;DHT22;5615;49.304;10.576;2023-07-13T14:28:44;31.20;29.70
11122;DHT22;5615;49.304;10.576;2023-07-13T14:31:12;29.70;31.50
11122;DHT22;5615;49.304;10.576;2023-07-13T14:33:39;29.60;31.80
11122;DHT22;5615;49.304;10.576;2023-07-13T14:36:21;28.70;32.90
11122;DHT22;5615;49.304;10.576;2023-07-13T14:38:51;27.70;34.80
11122;DHT22;5615;49.304;10.576;2023-07-13T14:41:18;28.30;34.40
11122;DHT22;5615;49.304;10.576;2023-07-13T14:43:46;28.20;34.50
11122;DHT22;5615;49.304;10.576;2023-07-13T14:46:21;27.50;33.90
11122;DHT22;5615;49.304;10.576;2023-07-13T14:48:51;28.20;32.90
11122;DHT22;5615;49.304;10.576;2023-07-13T14:51:17;29.40;32.20
11122;DHT22;5615;49.304;10.576;2023-07-13T14:53:44;30.80;31.70
11122;DHT22;5615;49.304;10.576;2023-07-13T14:56:12;31.50;30.80
11122;DHT22;5615;49.304;10.576;2023-07-13T14:58:40;30.90;30.40
11122;DHT22;5615;49.304;10.576;2023-07-13T15:01:11;32.00;30.10
11122;DHT22;5615;49.304;10.576;2023-07-13T15:03:41;29.60;31.30
11122;DHT22;5615;49.304;10.576;2023-07-13T15:06:10;29.90;31.80
11122;DHT22;5615;49.304;10.576;2023-07-13T15:08:37;30.30;31.20
11122;DHT22;5615;49.304;10.576;2023-07-13T15:11:06;29.30;31.20
11122;DHT22;5615;49.304;10.576;2023-07-13T15:13:34;28.90;30.10
11122;DHT22;5615;49.304;10.576;2023-07-13T15:16:01;28.70;31.10
11122;DHT22;5615;49.304;10.576;2023-07-13T15:18:28;30.20;30.90
11122;DHT22;5615;49.304;10.576;2023-07-13T15:20:55;30.50;29.90
11122;DHT22;5615;49.304;10.576;2023-07-13T15:23:23;30.60;30.10
11122;DHT22;5615;49.304;10.576;2023-07-13T15:25:51;30.00;32.10
11122;DHT22;5615;49.304;10.576;2023-07-13T15:28:18;30.30;32.20
11122;DHT22;5615;49.304;10.576;2023-07-13T15:30:48;30.60;31.50
11122;DHT22;5615;49.304;10.576;2023-07-13T15:33:16;29.20;32.20
11122;DHT22;5615;49.304;10.576;2023-07-13T15:35:45;29.50;32.10
11122;DHT22;5615;49.304;10.576;2023-07-13T15:38:16;28.70;32.80
11122;DHT22;5615;49.304;10.576;2023-07-13T15:40:43;28.00;33.80